Station: Ngukurr Aws

  Atmospheric Gas Attenuation - ITU Rec 676-11   --------------- db/100km ---------------
Date Time Temp RH % AH g/m3 Dew Point Wind Direction Speed kph Gust kph Barometer mB Rainfall Since 9am 24GHz 47GHz 76GHz 122GHz 134GHz 241GHz
11 22:10 26.5 91 22.78 24.9 6 6 1013.1 0 48.8 46.7 94.0 249.0 280.2 973.4
11 22:00 26.1 90 22.03 24.3 2 4 1011.3 0 47.3 45.3 90.6 239.9 269.0 934.5
11 21:50 26.3 88 21.79 24.1 2 2 1013.1 0 46.7 44.8 89.3 236.4 264.7 919.6
11 21:40 26.7 87 22.02 24.3 4 4 1013.1 0 47.2 45.0 90.0 238.2 267.0 927.6
11 21:30 26.7 86 21.77 24.2 4 6 1011.1 0 46.7 44.5 88.6 234.5 262.6 912.3
11 21:20 26.8 84 21.38 24 2 4 1013.1 0 45.8 43.7 86.7 229.5 256.3 890.6
11 21:10 26.9 82 20.99 23.7 4 6 1013.1 0 45.0 42.9 84.7 224.1 249.8 867.9
11 21:00 27.1 82 21.22 23.8 4 6 1010.7 0 45.5 43.1 85.4 226.1 252.3 876.8
11 20:50 27.2 81 21.08 23.6 4 4 1013.1 0 45.1 42.9 84.8 224.4 250.2 869.4
11 20:40 27.3 80 20.93 23.5 4 4 1013.1 0 44.8 42.6 83.9 222.2 247.5 860.0
11 20:30 27.8 78 20.98 23.6 2 4 1010.4 0 44.9 42.3 83.4 220.9 246.2 855.5
11 20:20 28.5 75 20.96 23.6 4 6 1013.1 0 44.7 42.0 82.7 219.0 244.0 848.1
11 20:10 28.7 74 20.91 23.6 4 4 1013.1 0 44.6 41.8 82.3 217.8 242.6 843.2
11 20:00 28.8 73 20.74 23.5 4 6 1010 0 44.2 41.3 81.2 214.9 239.2 831.3
11 19:50 28.9 72 20.57 23.5 6 6 1013.1 0 43.9 41.1 80.5 213.0 236.8 822.9
11 19:40 28.8 75 21.31 23.9 6 6 1013.1 0 45.4 42.5 84.1 222.6 248.4 863.5
11 19:30 28.9 73 20.86 23.6 4 6 1009.6 0 44.5 41.5 81.6 216.1 240.6 836.3
11 19:20 28.9 72 20.57 23.5 4 4 1013.1 0 43.9 41.1 80.5 213.0 236.8 822.9
11 19:10 29.1 69 19.93 22.8 2 2 1013.1 0 42.5 39.8 77.3 204.6 226.5 787.4
11 19:00 29.1 68 19.64 22.6 2 6 1009.3 0 41.9 39.1 75.8 200.5 221.6 770.4
11 18:50 29.6 65 19.29 22.5 0 0 1013.1 0 41.1 38.4 73.9 195.7 215.6 749.5
11 18:40 30.1 62 18.91 22.2 0 0 1013.1 0 40.2 37.5 71.8 189.9 208.7 725.6
11 18:30 31.1 58 18.67 21.9 2 2 1009.1 0 39.7 36.5 69.6 184.2 202.1 702.6
11 18:20 31.9 54 18.14 21.7 2 4 1013.1 0 38.5 35.4 66.9 176.9 193.2 671.9
11 18:10 32.6 49 17.08 20.8 6 6 1013.1 0 36.2 33.4 61.9 163.8 177.3 616.5
11 18:00 33.2 47 16.92 20.7 9 15 1008.9 0 35.8 32.7 60.6 160.3 173.3 602.7
11 17:50 33.6 44 16.17 20 7 9 1013.1 0 34.2 31.6 57.6 152.2 163.3 567.9
11 17:40 33.9 41 15.31 19.1 6 6 1013.1 0 32.4 30.1 54.1 142.9 152.0 528.2
11 17:30 34 39 14.64 18.1 7 13 1008.7 0 31.1 28.9 51.3 135.5 143.1 497.3
11 17:20 34.3 36 13.73 17.5 9 13 1013.1 0 29.2 27.7 48.0 126.7 132.2 459.2
11 17:10 34.5 37 14.26 18.1 7 9 1013.1 0 30.2 28.4 49.8 131.5 138.1 479.9
11 17:00 34.7 38 14.8 18.7 9 15 1008.6 0 31.3 28.9 51.4 135.9 143.8 499.6
11 16:50 34.7 36 14.02 17.8 9 11 1013.1 0 29.7 28.0 48.8 128.9 134.9 468.8
11 16:40 35.3 37 14.87 18.8 13 15 1013.1 0 31.4 29.0 51.5 136.1 144.0 500.5
11 16:30 35.4 37 14.94 18.5 13 17 1008.5 0 31.6 28.9 51.5 136.1 144.2 501.1
11 16:20 35.3 35 14.06 17.9 9 13 1013.1 0 29.8 27.8 48.6 128.3 134.4 467.0
11 16:10 35.6 36 14.69 18.6 11 11 1013.1 0 31.0 28.6 50.7 133.9 141.3 491.2
11 16:00 35.5 37 15.02 18.6 11 15 1008.4 0 31.7 29.0 51.7 136.7 144.9 503.8
11 15:50 35.5 36 14.61 18.5 13 17 1013.1 0 30.9 28.6 50.5 133.3 140.5 488.5
11 15:40 35.9 35 14.51 18.4 7 9 1013.1 0 30.6 28.3 49.9 131.6 138.7 481.9
11 15:30 35.3 33 13.26 17 9 17 1008.3 0 28.1 26.5 45.6 120.2 124.7 433.0
11 15:20 36.3 34 14.39 18.3 7 11 1013.1 0 30.4 28.0 49.2 129.9 136.6 474.7
11 15:10 35.9 34 14.09 18 7 11 1013.1 0 29.8 27.7 48.4 127.6 133.7 464.8
11 15:00 36 34 14.16 18.1 9 15 1008.5 0 29.9 27.6 48.3 127.6 133.9 465.4
11 14:50 35.9 35 14.51 18.4 6 6 1013.1 0 30.6 28.3 49.9 131.6 138.7 481.9
11 14:40 36.4 34 14.46 18.4 17 20 1013.1 0 30.5 28.1 49.4 130.4 137.2 476.9
11 14:30 36.1 36 15.08 19.1 9 19 1008.8 0 31.8 28.9 51.6 136.3 144.6 502.7
11 14:20 35.7 33 13.54 17.4 6 6 1013.1 0 28.7 27.0 46.5 122.8 127.7 443.7
11 14:10 34.8 36 14.09 17.9 4 4 1013.1 0 29.9 28.0 49.0 129.4 135.6 471.1
11 14:00 34.6 37 14.33 18.2 7 13 1009.1 0 30.4 28.3 49.8 131.6 138.4 480.8
11 13:50 35.4 37 14.94 18.9 2 4 1013.1 0 31.6 29.1 51.7 136.6 144.7 502.8
11 13:40 35.2 37 14.79 18.7 7 7 1013.1 0 31.3 28.9 51.3 135.5 143.2 497.8
11 13:30 35.9 37 15.33 19.3 6 11 1009.4 0 32.3 29.4 52.7 139.1 148.0 514.6
11 13:20 35.4 36 14.54 18.4 7 11 1013.1 0 30.7 28.5 50.3 132.7 139.9 486.2
11 13:10 35.7 36 14.77 18.7 7 11 1013.1 0 31.2 28.7 50.9 134.5 142.1 493.9
11 13:00 35.7 39 16 19.6 4 9 1009.7 0 33.7 30.4 55.3 146.1 156.6 544.4
11 12:50 35.4 40 16.15 20.1 4 6 1013.1 0 34.0 30.9 56.2 148.6 159.4 554.3
11 12:40 34.6 39 15.11 19 6 7 1013.1 0 32.0 29.6 52.9 139.7 148.2 515.1
11 12:30 35 38 15.03 18.6 7 13 1010.3 0 31.8 29.2 52.2 137.9 146.2 508.1
11 12:20 34.8 39 15.27 19.2 6 11 1013.1 0 32.3 29.8 53.3 140.9 149.8 520.6
11 12:10 34.8 43 16.83 20.7 9 11 1013.1 0 35.5 32.2 59.3 156.7 169.2 588.4
11 12:00 34.3 38 14.49 18.3 7 11 1010.7 0 30.7 28.7 50.7 133.8 141.0 489.9
11 11:50 34.2 43 16.31 20.2 7 9 1013.1 0 34.5 31.6 57.7 152.5 163.9 569.8
11 11:40 34 45 16.89 20.7 4 4 1013.1 0 35.7 32.6 60.1 158.9 171.7 597.0
11 11:30 33.5 46 16.82 20.6 4 9 1011.2 0 35.6 32.6 60.1 158.9 171.7 596.9
11 11:20 34 51 19.14 22.7 4 6 1013.1 0 40.3 36.2 69.2 183.2 201.5 700.9
11 11:10 33.3 49 17.73 21.4 0 0 1013.1 0 37.5 34.2 64.0 169.3 184.3 640.8
11 11:00 33 53 18.87 22.4 2 6 1011.4 0 39.9 36.1 68.9 182.3 200.2 696.2
11 10:50 32.5 55 19.07 22.5 4 6 1013.1 0 40.3 36.8 70.3 186.0 204.5 711.2
11 10:40 32.3 57 19.56 22.9 4 4 1013.1 0 41.4 37.7 72.6 192.0 211.9 736.9
11 10:30 32.4 56 19.32 22.5 2 4 1011.6 0 40.9 37.2 71.3 188.8 208.0 723.5
11 10:20 31.8 55 18.38 21.9 0 0 1013.1 0 39.0 35.9 68.0 179.8 196.8 684.2
11 10:10 31.7 62 20.6 23.5 0 0 1013.1 0 43.6 39.8 77.7 205.7 228.6 794.8
11 10:00 31.3 64 20.82 23.7 4 9 1011.6 0 44.1 40.3 79.0 209.2 232.8 809.4
11 09:50 31 68 21.77 24.6 4 6 1013.1 0 46.1 42.3 83.8 221.9 248.2 862.9
11 09:40 30.3 68 20.96 23.7 6 7 1013.1 0 44.5 41.1 80.8 213.9 238.2 828.2
11 09:30 30 71 21.53 24.2 4 7 1011.6 0 45.8 42.3 83.7 221.6 247.6 860.7
11 09:20 29.5 72 21.25 24.1 6 6 1013.1 0 45.2 42.1 83.0 219.8 245.2 852.3
11 09:10 29.2 75 21.78 24.3 4 6 1013.1 0 46.4 43.2 85.9 227.3 254.4 884.2
11 09:00 28.5 78 21.8 24.3 2 6 1011.8 0 46.5 43.6 86.7 229.5 256.9 892.7
11 08:50 28.3 80 22.12 24.5 4 6 1013.1 0 47.2 44.4 88.5 234.4 262.8 913.5
11 08:40 27.8 83 22.33 24.6 0 0 1013.1 0 47.7 45.1 90.2 238.7 268.0 931.3
11 08:30 27.7 85 22.74 24.9 2 6 1011.8 0 48.6 45.9 92.2 244.2 274.7 954.8
11 08:20 26.8 89 22.65 24.8 4 4 1013.1 0 48.5 46.3 93.0 246.2 276.9 962.0
11 08:10 26.4 95 23.65 25.5 4 4 1013.1 0 50.7 48.5 98.6 261.2 295.1 1025.3
11 08:00 26 98 23.86 25.7 4 6 1011.8 0 51.2 49.2 100.2 265.3 300.1 1042.4
11 07:50 25.6 98 23.33 25.2 6 6 1013.1 0 50.1 48.4 98.0 259.6 292.9 1017.5
11 07:40 25.3 98 22.94 24.9 0 0 1013.1 0 49.3 47.7 96.4 255.2 287.5 998.6
11 07:30 24.2 99 21.78 24 0 0 1011.1 0 47.0 45.9 91.7 242.7 271.8 944.1
11 07:20 23.5 99 20.94 23.3 2 2 1013.1 0 45.3 44.6 88.4 233.9 260.7 905.4
11 07:10 22.7 99 20 22.5 4 4 1013.1 0 43.4 43.1 84.5 223.7 248.0 861.1
11 07:00 22.4 99 19.66 22.2 0 6 1010.6 0 42.7 42.5 83.0 219.6 243.0 843.8
11 06:50 22.1 99 19.32 21.9 0 0 1013.1 0 42.0 42.1 81.8 216.4 238.9 829.4
11 06:40 22.1 99 19.32 21.9 0 0 1013.1 0 42.0 42.1 81.8 216.4 238.9 829.4
11 06:30 22.1 99 19.32 21.9 0 0 1010.3 0 42.0 42.0 81.6 216.0 238.4 827.8
11 06:20 22.4 99 19.66 22.2 0 0 1013.1 0 42.7 42.6 83.2 220.1 243.4 845.3
11 06:10 22.4 99 19.66 22.2 0 0 1013.1 0 42.7 42.6 83.2 220.1 243.4 845.3
11 06:00 22.5 99 19.77 22.3 0 0 1010.2 0 42.9 42.7 83.4 220.7 244.4 848.7
11 05:50 22.7 99 20 22.5 0 0 1013.1 0 43.4 43.1 84.5 223.7 248.0 861.1
11 05:40 22.5 99 19.77 22.3 0 0 1013.1 0 42.9 42.8 83.6 221.2 244.9 850.4

Last Refresh: 11-Apr-2021 22:23:06

Bureau of Meteorology